createdAt,value
2023-03-07T00:01:00.070Z,99937.41
2023-03-07T00:06:02.241Z,99929.63
2023-03-07T00:10:52.727Z,99932.09
2023-03-07T00:15:55.021Z,99928.69
2023-03-07T00:20:54.492Z,99929.59
2023-03-07T00:26:05.106Z,99921.03
2023-03-07T00:31:00.413Z,99923.59
2023-03-07T00:36:02.200Z,99921.84
2023-03-07T00:41:11.357Z,99923.56
2023-03-07T00:46:06.952Z,99915.72
2023-03-07T00:50:58.170Z,99909.75
2023-03-07T00:56:00.108Z,99913.22
2023-03-07T01:00:56.443Z,99922.63
2023-03-07T01:05:51.389Z,99909.72
2023-03-07T01:10:48.342Z,99903.69
2023-03-07T01:15:42.440Z,99902.88
2023-03-07T01:20:36.339Z,99895.97
2023-03-07T01:25:29.715Z,99891.69
2023-03-07T01:30:31.072Z,99885.72
2023-03-07T01:35:24.462Z,99877.97
2023-03-07T01:40:20.685Z,99882.38
2023-03-07T01:45:29.055Z,99875.47
2023-03-07T01:50:27.177Z,99872.88
2023-03-07T01:55:22.952Z,99868.53
2023-03-07T02:00:25.725Z,99858.19
2023-03-07T02:05:19.309Z,99848.84
2023-03-07T02:10:15.644Z,99842.78
2023-03-07T02:15:18.282Z,99840.16
2023-03-07T02:20:23.429Z,99838.47
2023-03-07T02:25:23.255Z,99832.50
2023-03-07T02:30:20.441Z,99828.19
2023-03-07T02:35:21.209Z,99831.63
2023-03-07T02:40:26.592Z,99830.75
2023-03-07T02:45:40.462Z,99819.59
2023-03-07T02:50:33.738Z,99820.47
2023-03-07T02:55:26.763Z,99820.56
2023-03-07T03:00:26.659Z,99814.50
2023-03-07T03:05:20.163Z,99816.16
2023-03-07T03:10:14.747Z,99810.22
2023-03-07T03:15:16.416Z,99805.03
2023-03-07T03:20:14.030Z,99822.31
2023-03-07T03:25:15.267Z,99800.09
2023-03-07T03:30:10.716Z,99810.41
2023-03-07T03:35:05.289Z,99803.53
2023-03-07T03:39:56.911Z,99768.38
2023-03-07T03:44:53.834Z,99786.44
2023-03-07T03:49:46.225Z,99782.16
2023-03-07T03:54:38.735Z,99777.03
2023-03-07T03:59:30.335Z,99785.63
2023-03-07T04:04:25.667Z,99779.66
2023-03-07T04:09:15.323Z,99778.72
2023-03-07T04:14:09.768Z,99779.63
2023-03-07T04:19:09.810Z,99775.34
2023-03-07T04:24:06.947Z,99779.66
2023-03-07T04:28:57.949Z,99761.69
2023-03-07T04:34:00.492Z,99768.50
2023-03-07T04:38:54.658Z,99766.78
2023-03-07T04:44:00.574Z,99761.69
2023-03-07T04:48:57.708Z,99756.53
2023-03-07T04:53:59.739Z,99755.63
2023-03-07T04:58:58.500Z,99751.41
2023-03-07T05:03:53.956Z,99750.56
2023-03-07T05:08:52.265Z,99750.59
2023-03-07T05:13:47.912Z,99744.59
2023-03-07T05:18:53.110Z,99742.00
2023-03-07T05:23:52.488Z,99736.03
2023-03-07T05:28:46.100Z,99741.22
2023-03-07T05:33:44.151Z,99746.34
2023-03-07T05:38:43.126Z,99745.53
2023-03-07T05:43:42.753Z,99744.72
2023-03-07T05:48:33.363Z,99756.75
2023-03-07T05:53:23.655Z,99757.59
2023-03-07T05:58:18.262Z,99755.03
2023-03-07T06:03:12.280Z,99747.31
2023-03-07T06:08:04.672Z,99755.06
2023-03-07T06:12:59.463Z,99755.06
2023-03-07T06:18:07.119Z,99755.06
2023-03-07T06:23:01.343Z,99749.94
2023-03-07T06:28:06.393Z,99755.94
2023-03-07T06:33:00.929Z,99755.94
2023-03-07T06:37:50.753Z,99748.22
2023-03-07T06:42:48.976Z,99763.66
2023-03-07T06:47:45.106Z,99759.38
2023-03-07T06:52:37.613Z,99772.25
2023-03-07T06:57:29.762Z,99766.25
2023-03-07T07:02:24.926Z,99761.97
2023-03-07T07:07:23.745Z,99766.22
2023-03-07T07:12:19.418Z,99774.78
2023-03-07T07:17:17.978Z,99791.91
2023-03-07T07:22:15.826Z,99796.19
2023-03-07T07:27:06.760Z,99798.75
2023-03-07T07:32:06.049Z,99794.47
2023-03-07T07:36:57.361Z,99795.31
2023-03-07T07:41:50.729Z,99803.88
2023-03-07T07:46:45.511Z,99811.59
2023-03-07T07:51:45.151Z,99807.31
2023-03-07T07:56:36.906Z,99812.44
2023-03-07T08:01:31.682Z,99820.16
2023-03-07T08:06:22.423Z,99809.84
2023-03-07T08:11:16.715Z,99821.84
2023-03-07T08:16:15.347Z,99833.00
2023-03-07T08:21:05.853Z,99828.72
2023-03-07T08:25:57.496Z,99821.00
2023-03-07T08:30:55.031Z,99824.47
2023-03-07T08:35:46.218Z,99818.44
2023-03-07T08:40:36.494Z,99818.44
2023-03-07T08:45:30.467Z,99824.47
2023-03-07T08:50:25.840Z,99833.00
2023-03-07T08:55:18.838Z,99825.31
2023-03-07T09:00:13.245Z,99829.59
2023-03-07T09:05:10.332Z,99822.75
2023-03-07T09:10:07.855Z,99834.75
2023-03-07T09:15:01.988Z,99839.91
2023-03-07T09:19:53.058Z,99833.06
2023-03-07T09:25:01.691Z,99839.94
2023-03-07T09:30:08.609Z,99830.50
2023-03-07T09:35:09.589Z,99839.94
2023-03-07T09:40:14.742Z,99828.78
2023-03-07T09:45:21.476Z,99835.66
2023-03-07T09:50:42.584Z,99827.09
2023-03-07T09:55:39.374Z,99820.25
2023-03-07T10:00:33.770Z,99821.94
2023-03-07T10:05:38.420Z,99820.22
2023-03-07T10:10:37.856Z,99822.75
2023-03-07T10:15:42.663Z,99821.03
2023-03-07T10:20:45.314Z,99821.81
2023-03-07T10:25:47.770Z,99821.84
2023-03-07T10:30:43.659Z,99819.28
2023-03-07T10:35:44.919Z,99820.16
2023-03-07T10:40:45.672Z,99825.31
2023-03-07T10:45:40.110Z,99827.94
2023-03-07T10:50:38.695Z,99842.50
2023-03-07T10:55:41.629Z,99833.06
2023-03-07T11:00:40.710Z,99835.66
2023-03-07T11:05:36.970Z,99845.94
2023-03-07T11:10:46.355Z,99853.66
2023-03-07T11:15:45.714Z,99849.34
2023-03-07T11:20:51.280Z,99843.38
2023-03-07T11:25:45.662Z,99841.66
2023-03-07T11:30:45.040Z,99842.50
2023-03-07T11:35:56.624Z,99843.34
2023-03-07T11:40:58.256Z,99848.53
2023-03-07T11:46:06.583Z,99850.22
2023-03-07T11:51:02.130Z,99846.78
2023-03-07T11:56:00.219Z,99827.06
2023-03-07T12:01:02.295Z,99833.88
2023-03-07T12:06:09.836Z,99833.00
2023-03-07T12:11:19.055Z,99833.84
2023-03-07T12:16:15.513Z,99826.06
2023-03-07T12:21:20.612Z,99830.38
2023-03-07T12:26:19.401Z,99805.59
2023-03-07T12:31:15.957Z,99841.63
2023-03-07T12:36:10.446Z,99828.75
2023-03-07T12:41:09.961Z,99835.56
2023-03-07T12:46:14.420Z,99836.44
2023-03-07T12:51:12.257Z,99832.16
2023-03-07T12:56:07.514Z,99839.03
2023-03-07T13:01:01.693Z,99844.19
2023-03-07T13:05:56.570Z,99858.81
2023-03-07T13:10:49.943Z,99862.25
2023-03-07T13:16:04.459Z,99855.34
2023-03-07T13:21:10.015Z,99858.78
2023-03-07T13:26:08.120Z,99853.66
2023-03-07T13:31:18.939Z,99863.94
2023-03-07T13:36:36.156Z,99869.06
2023-03-07T13:41:45.473Z,99863.94
2023-03-07T13:47:02.963Z,99877.63
2023-03-07T13:52:12.843Z,99874.19
2023-03-07T13:57:13.281Z,99869.06
2023-03-07T14:02:21.336Z,99881.94
2023-03-07T14:07:17.766Z,99882.78
2023-03-07T14:12:23.539Z,99899.91
2023-03-07T14:17:37.824Z,99891.34
2023-03-07T14:22:39.322Z,99896.50
2023-03-07T14:27:36.578Z,99902.44
2023-03-07T14:32:30.139Z,99904.97
2023-03-07T14:37:22.080Z,99901.53
2023-03-07T14:42:25.099Z,99899.81
2023-03-07T14:47:31.181Z,99905.88
2023-03-07T14:52:31.254Z,99902.44
2023-03-07T14:57:26.906Z,99906.75
2023-03-07T15:02:24.406Z,99916.16
2023-03-07T15:07:25.740Z,99908.47
2023-03-07T15:12:18.800Z,99911.03
2023-03-07T15:17:15.044Z,99907.59
2023-03-07T15:22:12.711Z,99916.16
2023-03-07T15:27:12.051Z,99920.44
2023-03-07T15:32:26.585Z,99922.13
2023-03-07T15:37:33.201Z,99924.69
2023-03-07T15:42:40.211Z,99919.53
2023-03-07T15:47:40.087Z,99918.69
2023-03-07T15:52:37.552Z,99923.03
2023-03-07T15:57:36.024Z,99935.88
2023-03-07T16:02:47.076Z,99938.44
2023-03-07T16:07:40.491Z,99941.88
2023-03-07T16:12:50.062Z,99933.28
2023-03-07T16:17:42.954Z,99937.53
2023-03-07T16:22:36.570Z,99934.97
2023-03-07T16:27:39.464Z,99937.53
2023-03-07T16:32:37.721Z,99936.69
2023-03-07T16:37:34.533Z,99943.50
2023-03-07T16:42:30.737Z,99938.34
2023-03-07T16:47:22.468Z,99948.66
2023-03-07T16:52:19.240Z,99948.59
2023-03-07T16:57:27.114Z,99948.63
2023-03-07T17:02:27.245Z,99958.03
2023-03-07T17:07:26.918Z,99965.72
2023-03-07T17:12:20.756Z,99976.88
2023-03-07T17:17:19.487Z,99973.50
2023-03-07T17:22:19.905Z,99988.88
2023-03-07T17:27:14.073Z,99993.97
2023-03-07T17:32:08.948Z,99996.47
2023-03-07T17:37:12.335Z,99998.19
2023-03-07T17:42:03.561Z,100002.44
2023-03-07T17:47:08.029Z,100008.44
2023-03-07T17:51:59.685Z,100005.88
2023-03-07T17:56:53.801Z,100016.13
2023-03-07T18:01:46.299Z,100028.97
2023-03-07T18:06:41.055Z,100026.44
2023-03-07T18:11:39.682Z,100042.72
2023-03-07T18:16:32.960Z,100053.91
2023-03-07T18:21:25.828Z,100067.59
2023-03-07T18:26:19.583Z,100066.78
2023-03-07T18:31:11.765Z,100059.06
2023-03-07T18:36:08.367Z,100055.66
2023-03-07T18:41:11.647Z,100053.91
2023-03-07T18:46:09.468Z,100059.88
2023-03-07T18:51:07.778Z,100064.97
2023-03-07T18:55:59.109Z,100074.31
2023-03-07T19:00:55.674Z,100081.09
2023-03-07T19:05:57.228Z,100081.06
2023-03-07T19:10:51.300Z,100081.88
2023-03-07T19:15:44.143Z,100090.34
2023-03-07T19:20:39.941Z,100084.28
2023-03-07T19:25:39.855Z,100085.91
2023-03-07T19:30:40.473Z,100076.41
2023-03-07T19:35:33.415Z,100090.88
2023-03-07T19:40:41.092Z,100094.13
2023-03-07T19:45:43.935Z,100098.22
2023-03-07T19:50:33.910Z,100095.63
2023-03-07T19:55:24.952Z,100105.06
2023-03-07T20:00:17.862Z,100106.75
2023-03-07T20:05:21.380Z,100103.34
2023-03-07T20:10:14.798Z,100110.03
2023-03-07T20:15:10.490Z,100099.75
2023-03-07T20:20:04.337Z,100107.44
2023-03-07T20:25:03.227Z,100110.03
2023-03-07T20:29:59.852Z,100112.56
2023-03-07T20:34:53.629Z,100113.31
2023-03-07T20:39:47.483Z,100108.94
2023-03-07T20:44:44.335Z,100110.50
2023-03-07T20:49:38.173Z,100108.66
2023-03-07T20:54:27.851Z,100118.97
2023-03-07T20:59:25.554Z,100117.22
2023-03-07T21:04:21.689Z,100115.38
2023-03-07T21:09:15.622Z,100117.00
2023-03-07T21:14:07.471Z,100126.44
2023-03-07T21:19:01.871Z,100125.50
2023-03-07T21:23:54.611Z,100131.31
2023-03-07T21:28:47.544Z,100126.94
2023-03-07T21:33:43.663Z,100135.38
2023-03-07T21:38:41.734Z,100138.78
2023-03-07T21:43:41.390Z,100151.63
2023-03-07T21:48:50.694Z,100143.81
2023-03-07T21:53:45.547Z,100149.06
2023-03-07T21:58:43.292Z,100145.72
2023-03-07T22:03:36.563Z,100146.56
2023-03-07T22:08:34.614Z,100139.84
2023-03-07T22:13:27.855Z,100143.25
2023-03-07T22:18:20.307Z,100152.56
2023-03-07T22:23:13.613Z,100150.84
2023-03-07T22:28:10.149Z,100143.16
2023-03-07T22:33:08.376Z,100150.75
2023-03-07T22:38:01.658Z,100146.41
2023-03-07T22:42:54.186Z,100164.34
2023-03-07T22:47:44.976Z,100155.00
2023-03-07T22:52:34.560Z,100152.56
2023-03-07T22:57:34.708Z,100144.94
2023-03-07T23:02:32.958Z,100147.50
2023-03-07T23:07:23.529Z,100131.22
2023-03-07T23:12:15.449Z,100134.59
2023-03-07T23:17:09.985Z,100131.97
2023-03-07T23:22:03.031Z,100121.56
2023-03-07T23:26:58.224Z,100123.22
2023-03-07T23:31:51.401Z,100124.94
2023-03-07T23:36:46.969Z,100117.09
2023-03-07T23:41:38.584Z,100119.59
2023-03-07T23:46:29.581Z,100115.34
2023-03-07T23:51:20.090Z,100116.13
2023-03-07T23:56:15.695Z,100114.41
